Terminal Aerodrome Forecast
Issued by NWS Burlington, VT

Home | Current Version | Previous Version | Text Only | Print | Product List | Glossary On
Versions: 1 2 3 4 5 6 7 8 9 10 11 12 13 14 15 16 17 18 19
819
FTUS41 KBTV 281131
TAFBTV
TAF
KBTV 281131Z 2812/0112 VRB03KT P6SM BKN100
     FM281600 17007KT P6SM BKN150
     FM282200 17009KT P6SM VCSH BKN050
     FM010800 18010KT 5SM -SHRA BR OVC035=

USA.gov is the U.S. government's official web portal to all federal, state and local government web resources and services.